Time;durP1;ratioP1;P1;durP2;ratioP2;P2;SDS_P1;SDS_P2;PMS_P1;PMS_P2;Temp;Humidity;BMP_temperature;BMP_pressure;BME280_temperature;BME280_humidity;BME280_pressure;Samples;Min_cycle;Max_cycle;Signal;HPM_P1;HPM_P2
2021/12/04 00:00:24;;;;;;;20.25;14.03;;;;;;;1.53;65.88;100215.58;1719764;82;21549;-69
2021/12/04 00:02:50;;;;;;;22.15;13.93;;;;;;;1.51;65.76;100218.91;1718866;81;21537;-68
2021/12/04 00:05:18;;;;;;;18.05;12.30;;;;;;;1.52;65.68;100215.28;1714391;81;21242;-69
2021/12/04 00:07:45;;;;;;;19.95;13.83;;;;;;;1.50;65.56;100217.81;1718572;83;21065;-68
2021/12/04 00:10:17;;;;;;;20.25;14.25;;;;;;;1.50;65.52;100221.25;1705593;82;21070;-68
2021/12/04 00:12:40;;;;;;;22.25;15.18;;;;;;;1.49;65.48;100214.89;1693372;84;21337;-68
2021/12/04 00:15:08;;;;;;;21.20;13.98;;;;;;;1.47;65.39;100220.85;1707510;83;21037;-69
2021/12/04 00:17:35;;;;;;;21.68;14.73;;;;;;;1.46;65.30;100226.63;1691734;84;21038;-69
2021/12/04 00:20:07;;;;;;;22.35;15.58;;;;;;;1.43;65.22;100226.23;1728676;81;21051;-69
2021/12/04 00:22:34;;;;;;;;;;;;;;;1.39;65.19;100221.89;1735013;81;21537;-68
2021/12/04 00:25:00;;;;;;;21.85;14.70;;;;;;;1.36;65.16;100222.30;1730787;82;21079;-69
2021/12/04 00:27:27;;;;;;;21.50;12.90;;;;;;;1.34;65.15;100225.11;1729861;82;21144;-69
2021/12/04 00:29:56;;;;;;;19.42;12.33;;;;;;;1.35;65.13;100218.02;1730209;80;21015;-69
2021/12/04 00:32:33;;;;;;;21.50;13.98;;;;;;;1.35;65.13;100219.34;1733032;81;21050;-67
2021/12/04 00:34:56;;;;;;;16.87;12.13;;;;;;;1.30;65.18;100216.53;1726130;81;21026;-68
2021/12/04 00:50:55;;;;;;;19.25;13.75;;;;;;;1.05;65.50;100234.73;1734386;81;21193;-68
2021/12/04 00:53:22;;;;;;;20.75;14.33;;;;;;;0.98;65.60;100236.05;1746814;80;21510;-69
2021/12/04 00:55:48;;;;;;;20.95;13.62;;;;;;;0.97;65.67;100238.39;1745689;80;21602;-68
2021/12/04 00:58:15;;;;;;;23.32;15.20;;;;;;;0.94;65.69;100238.28;1744928;80;21061;-67
2021/12/04 01:00:42;;;;;;;21.05;13.53;;;;;;;0.90;65.77;100229.69;1733248;82;21092;-68
2021/12/04 01:03:10;;;;;;;22.05;14.40;;;;;;;0.88;65.78;100228.56;1730374;81;21164;-68
2021/12/04 01:05:37;;;;;;;20.88;14.03;;;;;;;0.86;65.81;100227.97;1729429;81;21010;-68
2021/12/04 01:08:05;;;;;;;23.00;14.68;;;;;;;0.84;65.90;100232.61;1736473;82;21137;-68
2021/12/04 01:10:33;;;;;;;22.62;15.23;;;;;;;0.81;65.95;100225.63;1746593;80;20991;-67
2021/12/04 01:13:03;;;;;;;22.58;14.65;;;;;;;0.81;65.97;100225.63;1745286;80;21007;-68
2021/12/04 01:15:29;;;;;;;23.18;14.65;;;;;;;0.79;65.99;100224.53;1731768;82;21565;-69
2021/12/04 01:17:57;;;;;;;24.50;14.75;;;;;;;0.79;66.06;100225.02;1731401;81;20953;-69
2021/12/04 01:20:24;;;;;;;20.40;14.13;;;;;;;0.77;66.08;100217.34;1720554;83;21031;-69
2021/12/04 01:22:50;;;;;;;22.40;14.47;;;;;;;0.76;66.14;100213.10;1716699;82;21006;-69
2021/12/04 01:25:17;;;;;;;24.27;13.98;;;;;;;0.79;66.23;100222.38;1717393;82;21360;-68
2021/12/04 01:27:45;;;;;;;23.62;14.15;;;;;;;0.81;66.25;100223.00;1716246;82;21617;-68
2021/12/04 01:30:12;;;;;;;23.18;14.13;;;;;;;0.81;66.24;100224.32;1714999;82;21075;-68
2021/12/04 01:32:39;;;;;;;23.15;14.87;;;;;;;0.82;66.29;100228.55;1718605;82;21678;-67
2021/12/04 01:35:07;;;;;;;18.52;13.60;;;;;;;0.80;66.29;100235.34;1725392;81;21034;-68
2021/12/04 01:37:34;;;;;;;20.20;13.43;;;;;;;0.83;66.21;100236.77;1730459;81;21030;-68
2021/12/04 01:40:01;;;;;;;21.55;12.98;;;;;;;0.84;66.15;100239.70;1741289;81;22327;-69
2021/12/04 01:42:29;;;;;;;22.87;13.80;;;;;;;0.81;66.04;100241.41;1742210;81;21045;-68
2021/12/04 01:44:57;;;;;;;23.05;14.68;;;;;;;0.80;66.00;100239.80;1741744;82;21550;-68
2021/12/04 01:47:24;;;;;;;21.55;13.88;;;;;;;0.76;65.97;100247.28;1742120;82;21018;-68
2021/12/04 01:49:53;;;;;;;20.62;13.15;;;;;;;0.73;65.99;100246.36;1742544;81;21069;-68
2021/12/04 01:52:20;;;;;;;21.35;13.22;;;;;;;0.67;66.10;100244.53;1723393;82;21525;-68
2021/12/04 01:54:48;;;;;;;24.35;15.23;;;;;;;0.65;66.15;100247.34;1712607;82;21074;-68
2021/12/04 01:57:15;;;;;;;22.98;14.68;;;;;;;0.65;66.15;100246.02;1712673;82;21041;-68
2021/12/04 01:59:43;;;;;;;20.92;13.90;;;;;;;0.63;66.14;100249.38;1712776;83;21065;-67
2021/12/04 02:02:10;;;;;;;24.25;14.00;;;;;;;0.63;66.16;100253.31;1712423;82;21058;-67
2021/12/04 02:04:38;;;;;;;22.22;13.70;;;;;;;0.63;66.18;100258.58;1712906;82;21197;-67
2021/12/04 02:07:04;;;;;;;21.30;14.45;;;;;;;0.62;66.19;100265.33;1712408;82;21193;-68
2021/12/04 02:09:33;;;;;;;21.23;13.03;;;;;;;0.62;66.22;100271.39;1712694;83;21504;-67
2021/12/04 02:12:04;;;;;;;19.30;13.50;;;;;;;0.60;66.26;100274.73;1712415;82;21038;-67
2021/12/04 02:14:38;;;;;;;22.05;13.08;;;;;;;0.60;66.23;100264.73;1712784;82;21037;-67
2021/12/04 02:17:05;;;;;;;21.33;13.70;;;;;;;0.58;66.30;100266.73;1712562;82;21941;-68
2021/12/04 02:19:32;;;;;;;23.35;14.35;;;;;;;0.56;66.33;100261.70;1712761;82;21591;-67
2021/12/04 02:21:59;;;;;;;22.50;14.25;;;;;;;0.56;66.32;100273.52;1712630;82;21010;-67
2021/12/04 02:24:25;;;;;;;22.05;13.75;;;;;;;0.55;66.36;100264.50;1712986;82;20989;-67
2021/12/04 02:26:52;;;;;;;21.50;13.30;;;;;;;0.55;66.42;100273.70;1712932;82;21038;-67
2021/12/04 02:29:19;;;;;;;20.92;13.45;;;;;;;0.51;66.44;100268.55;1712777;82;21528;-68
2021/12/04 02:31:49;;;;;;;22.15;13.72;;;;;;;0.50;66.53;100271.68;1712747;82;21029;-69
2021/12/04 02:34:26;;;;;;;21.73;13.58;;;;;;;0.50;66.58;100270.87;1719822;82;21043;-68
2021/12/04 02:36:54;;;;;;;20.43;12.50;;;;;;;0.51;66.59;100271.17;1741876;81;21054;-68
2021/12/04 02:39:32;;;;;;;21.25;13.38;;;;;;;0.53;66.59;100277.86;1742229;81;21508;-68
2021/12/04 02:41:59;;;;;;;21.15;12.70;;;;;;;0.56;66.59;100281.41;1742361;81;21161;-68
2021/12/04 02:44:37;;;;;;;19.15;13.45;;;;;;;0.58;66.65;100278.56;1741804;81;20970;-68
2021/12/04 02:47:05;;;;;;;19.02;12.10;;;;;;;0.62;66.73;100282.41;1757926;80;21521;-67
2021/12/04 02:49:33;;;;;;;18.40;12.28;;;;;;;0.65;66.75;100278.08;1758247;80;21105;-67
2021/12/04 02:52:04;;;;;;;20.08;13.03;;;;;;;0.64;66.74;100280.41;1732293;80;21563;-67
2021/12/04 02:54:33;;;;;;;21.75;13.83;;;;;;;0.66;66.73;100271.32;1702166;83;21145;-68
2021/12/04 02:57:00;;;;;;;18.80;13.05;;;;;;;0.69;66.64;100280.60;1701880;83;20994;-69
2021/12/04 02:59:27;;;;;;;20.50;12.98;;;;;;;0.67;66.55;100274.75;1702303;83;21446;-67
2021/12/04 03:01:55;;;;;;;19.90;12.75;;;;;;;0.64;66.48;100278.58;1702163;83;21112;-67
2021/12/04 03:04:26;;;;;;;21.70;13.30;;;;;;;0.66;66.41;100282.34;1702032;83;21045;-67
2021/12/04 03:06:53;;;;;;;22.20;13.83;;;;;;;0.65;66.35;100279.39;1702252;83;21135;-68
2021/12/04 03:09:20;;;;;;;17.17;11.10;;;;;;;0.62;66.25;100272.70;1712666;82;21637;-68
2021/12/04 03:11:47;;;;;;;21.60;13.08;;;;;;;0.64;66.22;100273.33;1758383;80;20966;-68
2021/12/04 03:14:17;;;;;;;20.30;12.50;;;;;;;0.64;66.24;100272.02;1757224;80;21025;-68
2021/12/04 03:16:44;;;;;;;19.85;12.93;;;;;;;0.61;66.37;100269.78;1758206;80;21052;-67
2021/12/04 03:19:11;;;;;;;19.82;12.30;;;;;;;0.62;66.34;100269.27;1757462;81;23232;-68
2021/12/04 03:21:39;;;;;;;19.17;13.00;;;;;;;0.63;66.28;100265.14;1728094;81;21018;-68
2021/12/04 03:24:09;;;;;;;19.70;11.88;;;;;;;0.61;66.30;100261.89;1700002;83;21109;-68
2021/12/04 03:26:36;;;;;;;19.73;12.45;;;;;;;0.60;66.26;100262.91;1727988;81;21019;-68
2021/12/04 03:29:10;;;;;;;20.85;14.03;;;;;;;0.57;66.34;100273.81;1727492;82;21569;-68
2021/12/04 03:31:51;;;;;;;20.60;13.55;;;;;;;0.55;66.41;100276.33;1728087;81;21285;-67
2021/12/04 03:42:23;;;;;;;18.10;12.28;;;;;;;0.56;66.13;100297.17;1757563;80;20993;-67
2021/12/04 03:44:50;;;;;;;20.95;13.38;;;;;;;0.58;65.98;100296.97;1758206;81;21151;-67
2021/12/04 03:47:19;;;;;;;19.12;12.28;;;;;;;0.60;65.93;100302.84;1757754;80;21054;-66
2021/12/04 03:49:47;;;;;;;19.30;11.90;;;;;;;0.61;65.81;100306.58;1758324;80;21529;-67
2021/12/04 03:52:14;;;;;;;18.42;12.58;;;;;;;0.58;65.78;100310.10;1758054;80;21669;-67
2021/12/04 03:54:41;;;;;;;19.20;13.10;;;;;;;0.55;65.74;100311.81;1758133;81;21488;-67
2021/12/04 03:57:10;;;;;;;16.97;10.55;;;;;;;0.55;65.68;100308.67;1757855;80;21112;-68
2021/12/04 03:59:40;;;;;;;21.95;13.05;;;;;;;0.54;65.61;100305.75;1758362;80;21525;-67
2021/12/04 04:02:14;;;;;;;22.35;12.82;;;;;;;0.55;65.57;100306.55;1758041;81;21592;-66
2021/12/04 04:04:41;;;;;;;17.82;11.55;;;;;;;0.55;65.51;100313.12;1758119;80;20963;-67
2021/12/04 04:07:08;;;;;;;18.52;11.68;;;;;;;0.55;65.42;100309.98;1757428;80;21088;-67
2021/12/04 04:09:35;;;;;;;18.07;11.78;;;;;;;0.55;65.32;100315.75;1741419;81;21170;-66
2021/12/04 04:12:03;;;;;;;19.67;12.78;;;;;;;0.52;65.31;100318.27;1728013;82;21583;-68
2021/12/04 04:14:31;;;;;;;20.77;13.35;;;;;;;0.51;65.35;100312.71;1727625;83;21124;-68
2021/12/04 04:16:58;;;;;;;21.60;12.30;;;;;;;0.55;65.32;100314.44;1728004;82;21588;-67
2021/12/04 04:19:26;;;;;;;18.20;12.05;;;;;;;0.57;65.27;100311.92;1727966;83;21097;-67
2021/12/04 04:21:56;;;;;;;17.73;10.53;;;;;;;0.63;65.15;100313.77;1727946;82;21156;-66
2021/12/04 04:24:23;;;;;;;18.87;12.05;;;;;;;0.62;65.00;100306.06;1745653;81;21524;-67
2021/12/04 04:26:51;;;;;;;16.60;11.63;;;;;;;0.55;65.07;100304.73;1729468;81;21536;-67
2021/12/04 04:29:17;;;;;;;19.45;12.33;;;;;;;0.58;65.02;100303.02;1757943;80;22008;-67
2021/12/04 04:31:47;;;;;;;20.30;12.37;;;;;;;0.52;65.01;100303.81;1757810;80;21611;-67
2021/12/04 04:34:24;;;;;;;21.02;12.95;;;;;;;0.48;65.05;100306.53;1757927;81;21108;-68
2021/12/04 04:37:14;;;;;;;19.12;11.12;;;;;;;0.45;65.07;100312.18;1757985;81;21009;-67
2021/12/04 05:12:35;;;;;;;18.55;10.60;;;;;;;0.21;65.17;100334.00;1758023;80;21547;-67
2021/12/04 05:14:58;;;;;;;21.23;12.73;;;;;;;0.19;65.22;100334.69;1757203;81;21154;-67
2021/12/04 05:17:42;;;;;;;19.50;11.10;;;;;;;0.16;65.24;100335.08;1757966;80;21508;-67
2021/12/04 05:19:59;;;;;;;22.05;13.38;;;;;;;0.19;65.24;100339.13;1757894;81;21021;-68
2021/12/04 05:22:26;;;;;;;22.77;11.88;;;;;;;0.17;65.23;100337.22;1757970;80;21108;-67
2021/12/04 05:24:52;;;;;;;21.52;13.13;;;;;;;0.17;65.28;100341.16;1758353;81;21551;-67
2021/12/04 05:27:19;;;;;;;19.52;11.93;;;;;;;0.15;65.25;100345.28;1757896;81;21204;-67
2021/12/04 05:29:46;;;;;;;20.30;11.95;;;;;;;0.14;65.29;100345.48;1757924;81;21009;-67
2021/12/04 05:32:16;;;;;;;21.10;13.08;;;;;;;0.11;65.33;100351.93;1758016;81;21016;-67
2021/12/04 05:34:43;;;;;;;20.55;12.73;;;;;;;0.11;65.34;100354.56;1758000;81;21025;-67
2021/12/04 05:37:10;;;;;;;21.07;13.88;;;;;;;0.12;65.36;100356.67;1757979;81;21532;-67
2021/12/04 05:39:36;;;;;;;22.13;13.22;;;;;;;0.14;65.35;100356.80;1757992;81;21576;-67
2021/12/04 05:42:04;;;;;;;20.92;13.30;;;;;;;0.17;65.30;100364.80;1757746;80;21036;-67
2021/12/04 05:44:32;;;;;;;18.87;12.45;;;;;;;0.25;65.22;100364.62;1758100;81;21029;-67
2021/12/04 05:47:15;;;;;;;19.30;12.05;;;;;;;0.32;65.15;100370.72;1758035;80;20969;-67
2021/12/04 05:52:13;;;;;;;21.27;12.68;;;;;;;0.42;65.01;100375.63;1757804;81;21146;-67
2021/12/04 05:57:01;;;;;;;18.75;12.53;;;;;;;0.54;64.84;100387.72;1757996;80;21520;-67
2021/12/04 05:59:28;;;;;;;18.82;12.10;;;;;;;0.60;64.73;100386.44;1758112;81;21590;-67
2021/12/04 06:01:54;;;;;;;19.50;12.25;;;;;;;0.57;64.66;100384.20;1758068;80;21033;-67
2021/12/04 06:04:21;;;;;;;18.77;12.75;;;;;;;0.56;64.51;100381.75;1758075;81;21094;-67
2021/12/04 06:06:47;;;;;;;18.12;12.43;;;;;;;0.56;64.37;100381.75;1757791;80;21013;-67
2021/12/04 06:09:16;;;;;;;20.48;12.85;;;;;;;0.55;64.23;100386.70;1757946;81;21048;-67
2021/12/04 06:11:43;;;;;;;18.92;12.78;;;;;;;0.55;64.10;100382.26;1757926;81;21028;-66
2021/12/04 06:14:09;;;;;;;20.05;12.58;;;;;;;0.50;64.10;100380.73;1758008;81;21520;-67
2021/12/04 06:16:36;;;;;;;17.92;12.28;;;;;;;0.58;63.99;100387.13;1757996;80;21587;-67
2021/12/04 06:19:12;;;;;;;20.35;13.28;;;;;;;0.63;63.93;100387.88;1757969;81;21045;-67
2021/12/04 06:24:24;;;;;;;22.52;13.48;;;;;;;0.77;63.89;100393.98;1758088;81;21014;-67
2021/12/04 06:26:51;;;;;;;20.23;13.10;;;;;;;0.86;63.84;100384.92;1757874;81;21002;-67
2021/12/04 06:29:18;;;;;;;20.88;13.53;;;;;;;0.94;63.79;100391.31;1758002;81;21197;-66
2021/12/04 06:31:45;;;;;;;25.43;13.88;;;;;;;0.96;63.81;100395.08;1758137;80;20946;-66
2021/12/04 06:34:12;;;;;;;23.20;13.62;;;;;;;1.04;63.68;100397.00;1757882;81;20990;-66
2021/12/04 06:36:39;;;;;;;23.77;13.55;;;;;;;1.08;63.66;100396.91;1758344;80;21040;-67
2021/12/04 06:39:05;;;;;;;21.75;12.58;;;;;;;1.14;63.63;100396.63;1758199;81;21065;-67
2021/12/04 06:41:32;;;;;;;20.30;13.20;;;;;;;1.17;63.53;100396.23;1758000;80;21599;-68
2021/12/04 06:43:59;;;;;;;21.37;13.55;;;;;;;1.17;63.53;100403.61;1758055;81;20974;-68
2021/12/04 06:46:26;;;;;;;21.30;13.98;;;;;;;1.23;63.42;100403.84;1758205;81;21049;-67
2021/12/04 06:49:12;;;;;;;20.12;12.93;;;;;;;1.25;63.31;100411.01;1757978;81;21103;-67
2021/12/04 06:51:37;;;;;;;18.98;13.08;;;;;;;1.28;63.21;100413.24;1757909;81;21065;-67
2021/12/04 06:54:22;;;;;;;18.25;12.95;;;;;;;1.25;63.17;100403.95;1757897;81;21222;-68
2021/12/04 06:56:45;;;;;;;22.00;13.05;;;;;;;1.33;63.12;100408.20;1757530;81;21049;-67
2021/12/04 06:59:19;;;;;;;22.40;12.85;;;;;;;1.39;63.08;100409.53;1758053;81;21069;-67
2021/12/04 07:01:41;;;;;;;22.90;13.88;;;;;;;1.44;62.97;100402.85;1758053;80;21146;-68
2021/12/04 07:04:07;;;;;;;20.62;13.20;;;;;;;1.51;62.93;100403.16;1758011;81;21048;-67
2021/12/04 07:06:34;;;;;;;20.37;13.45;;;;;;;1.55;62.75;100395.69;1758098;81;21960;-68
2021/12/04 07:09:01;;;;;;;19.37;13.25;;;;;;;1.59;62.75;100399.03;1758045;81;20957;-67
2021/12/04 07:11:28;;;;;;;24.02;14.80;;;;;;;1.67;62.75;100402.47;1758100;81;21062;-66
2021/12/04 07:13:55;;;;;;;20.48;13.62;;;;;;;1.71;62.69;100403.20;1758118;81;21024;-66
2021/12/04 07:16:22;;;;;;;19.70;12.65;;;;;;;1.79;62.71;100404.30;1758040;81;21009;-67
2021/12/04 07:18:50;;;;;;;17.50;11.15;;;;;;;1.87;62.50;100408.53;1757847;81;21223;-67
2021/12/04 07:21:17;;;;;;;19.98;13.03;;;;;;;1.83;62.22;100406.02;1758224;81;21468;-66
2021/12/04 07:23:43;;;;;;;19.42;12.37;;;;;;;1.69;62.10;100406.52;1757896;81;21464;-67
2021/12/04 07:26:10;;;;;;;17.70;11.30;;;;;;;1.62;62.12;100405.20;1758096;81;20974;-67
2021/12/04 07:28:36;;;;;;;22.20;13.68;;;;;;;1.59;62.24;100413.50;1758046;81;21501;-67
2021/12/04 07:31:04;;;;;;;24.20;13.32;;;;;;;1.63;62.27;100409.96;1758296;81;21106;-67
2021/12/04 07:33:31;;;;;;;18.45;11.38;;;;;;;1.72;62.34;100415.84;1734537;81;21041;-67
2021/12/04 07:35:59;;;;;;;22.22;14.05;;;;;;;1.76;62.29;100409.97;1758105;81;21005;-67
2021/12/04 07:38:26;;;;;;;24.00;14.18;;;;;;;1.83;62.16;100408.64;1758038;81;21511;-67
2021/12/04 07:40:53;;;;;;;18.90;12.80;;;;;;;1.95;62.24;100412.81;1758251;81;21107;-67
2021/12/04 07:43:21;;;;;;;20.60;12.28;;;;;;;2.10;62.23;100409.43;1749950;80;21521;-68
2021/12/04 07:45:48;;;;;;;20.62;12.90;;;;;;;2.19;62.18;100405.58;1734390;81;20984;-67
2021/12/04 07:48:15;;;;;;;20.12;12.68;;;;;;;2.28;62.11;100416.20;1718984;82;20964;-68
2021/12/04 07:50:41;;;;;;;19.05;12.75;;;;;;;2.38;61.91;100414.46;1738876;82;20969;-67
2021/12/04 07:53:08;;;;;;;21.20;13.25;;;;;;;2.40;61.57;100412.41;1738819;82;21071;-67
2021/12/04 07:55:34;;;;;;;19.67;13.05;;;;;;;2.44;61.56;100411.52;1752063;80;21140;-68
2021/12/04 07:58:01;;;;;;;21.07;13.48;;;;;;;2.49;61.53;100412.50;1730585;81;21070;-68
2021/12/04 08:00:27;;;;;;;22.50;12.93;;;;;;;2.65;61.44;100416.52;1727974;83;21600;-67
2021/12/04 08:02:54;;;;;;;22.45;13.03;;;;;;;2.75;61.18;100411.60;1737676;81;21062;-68
2021/12/04 08:05:20;;;;;;;21.73;13.40;;;;;;;2.85;60.91;100414.31;1737865;81;21046;-68
2021/12/04 08:07:47;;;;;;;22.22;14.53;;;;;;;2.94;60.74;100407.78;1738079;82;21187;-68
2021/12/04 08:10:18;;;;;;;21.93;13.70;;;;;;;2.99;60.48;100409.27;1739186;81;21576;-67
2021/12/04 08:12:44;;;;;;;20.17;12.75;;;;;;;3.00;60.14;100406.95;1741531;81;21021;-67
2021/12/04 08:15:12;;;;;;;23.15;13.40;;;;;;;2.95;59.72;100403.60;1742331;81;21068;-68
2021/12/04 08:17:42;;;;;;;20.37;12.90;;;;;;;2.84;59.56;100410.87;1750396;80;21042;-69
2021/12/04 08:20:12;;;;;;;20.40;13.98;;;;;;;2.72;59.62;100409.89;1730790;82;21797;-68
2021/12/04 08:22:42;;;;;;;21.90;13.70;;;;;;;2.70;59.78;100406.16;1732668;81;20941;-68
2021/12/04 08:25:09;;;;;;;23.60;14.60;;;;;;;2.73;59.78;100403.11;1720349;81;21010;-69
2021/12/04 08:27:36;;;;;;;21.62;13.32;;;;;;;2.81;59.92;100398.09;1724350;81;21011;-69
2021/12/04 08:30:12;;;;;;;23.40;14.40;;;;;;;2.90;59.68;100394.20;1732575;80;21132;-69
2021/12/04 08:32:40;;;;;;;20.17;13.90;;;;;;;2.91;59.64;100393.69;1734387;81;21587;-68
2021/12/04 08:35:08;;;;;;;23.60;13.98;;;;;;;2.96;59.79;100394.69;1739329;80;20995;-68
2021/12/04 08:37:35;;;;;;;17.25;12.05;;;;;;;2.96;59.66;100396.01;1745981;80;21070;-68
2021/12/04 08:40:09;;;;;;;23.98;14.07;;;;;;;3.02;59.60;100390.38;1731361;81;20970;-69
2021/12/04 08:42:33;;;;;;;19.62;13.98;;;;;;;3.03;59.59;100394.66;1749927;80;21131;-68
2021/12/04 08:45:00;;;;;;;20.77;13.10;;;;;;;3.16;59.75;100393.27;1744184;80;21161;-69
2021/12/04 08:47:27;;;;;;;21.55;12.85;;;;;;;3.29;59.40;100394.98;1747205;80;21144;-69
2021/12/04 08:49:54;;;;;;;21.10;14.93;;;;;;;3.27;58.82;100393.09;1734694;82;21591;-70
2021/12/04 08:52:20;;;;;;;25.37;15.20;;;;;;;3.24;58.83;100388.23;1734002;81;21073;-68
2021/12/04 08:54:47;;;;;;;23.95;14.83;;;;;;;3.29;58.98;100384.42;1746982;80;21034;-69
2021/12/04 08:57:15;;;;;;;22.35;14.33;;;;;;;3.37;58.99;100386.83;1736642;81;21293;-69
2021/12/04 08:59:43;;;;;;;20.48;12.95;;;;;;;3.48;58.84;100377.40;1734039;81;21078;-70
2021/12/04 09:02:10;;;;;;;24.50;15.13;;;;;;;3.55;58.66;100373.39;1745990;80;21565;-67
2021/12/04 09:04:39;;;;;;;22.42;14.23;;;;;;;3.58;58.69;100361.88;1749544;81;21043;-69
2021/12/04 09:07:07;;;;;;;22.00;15.08;;;;;;;3.60;58.33;100360.36;1746356;80;21038;-67
2021/12/04 09:09:35;;;;;;;22.40;14.38;;;;;;;3.66;58.46;100363.47;1747799;80;21149;-68
2021/12/04 09:12:06;;;;;;;24.52;15.78;;;;;;;3.72;58.17;100365.25;1737212;81;20979;-69
2021/12/04 09:14:36;;;;;;;23.12;15.45;;;;;;;3.74;58.16;100360.53;1724193;81;21413;-69
2021/12/04 09:17:06;;;;;;;20.92;14.63;;;;;;;3.84;58.23;100368.77;1733257;82;21109;-68
2021/12/04 09:19:33;;;;;;;22.02;14.05;;;;;;;3.89;58.06;100360.22;1724726;81;21089;-69
2021/12/04 09:22:00;;;;;;;20.77;14.43;;;;;;;3.90;58.02;100361.83;1741465;80;21151;-69
2021/12/04 09:24:36;;;;;;;22.45;14.58;;;;;;;3.99;57.98;100354.72;1745187;80;21069;-69
2021/12/04 09:32:32;;;;;;;23.52;14.75;;;;;;;4.24;57.64;100351.20;1738007;80;21038;-69
2021/12/04 10:02:07;;;;;;;20.15;13.83;;;;;;;4.66;56.30;100330.17;1732070;81;21153;-68
2021/12/04 10:34:47;;;;;;;19.60;14.20;;;;;;;5.63;54.33;100296.86;1751878;80;21000;-68
2021/12/04 10:37:21;;;;;;;22.13;14.18;;;;;;;5.61;54.08;100295.74;1723601;83;21058;-69
2021/12/04 10:39:46;;;;;;;;;;;;;;;5.59;54.14;100293.03;1733458;81;21013;-71
2021/12/04 10:42:16;;;;;;;22.00;15.03;;;;;;;5.62;54.17;100298.67;1724704;81;21097;-71
2021/12/04 10:44:48;;;;;;;22.55;15.60;;;;;;;5.63;53.69;100294.20;1727136;81;21084;-69
2021/12/04 10:47:12;;;;;;;22.95;15.65;;;;;;;5.60;53.95;100298.11;1730592;80;21533;-69
2021/12/04 10:53:16;;;;;;;25.95;16.97;;;;;;;5.70;54.16;100298.06;1724406;81;21536;-69
2021/12/04 10:55:22;;;;;;;22.60;16.42;;;;;;;5.79;54.06;100286.88;1713757;81;21118;-69
2021/12/04 11:03:22;;;;;;;22.58;14.15;;;;;;;5.93;53.79;100274.74;1738545;81;21003;-69
2021/12/04 11:41:29;;;;;;;19.67;13.55;;;;;;;6.00;53.61;100250.23;1670899;84;21530;-69
2021/12/04 11:44:01;;;;;;;18.98;13.38;;;;;;;6.03;53.66;100248.44;1668851;84;21003;-69
2021/12/04 11:46:43;;;;;;;18.00;12.93;;;;;;;6.07;53.66;100243.75;1656727;86;21074;-69
2021/12/04 11:49:21;;;;;;;20.43;13.53;;;;;;;6.10;53.63;100243.80;1636222;87;21201;-69
2021/12/04 11:51:57;;;;;;;18.27;13.20;;;;;;;6.07;53.59;100238.44;1669761;83;21141;-70
2021/12/04 11:54:23;;;;;;;20.35;13.40;;;;;;;6.06;53.53;100237.36;1670003;83;21035;-68
2021/12/04 11:57:09;;;;;;;19.57;13.70;;;;;;;6.06;53.58;100238.17;1666273;85;21086;-68
2021/12/04 11:59:39;;;;;;;16.67;12.00;;;;;;;6.05;53.63;100233.08;1680698;84;21165;-70
2021/12/04 12:02:08;;;;;;;18.55;13.00;;;;;;;6.05;53.60;100227.25;1656915;86;21807;-70
2021/12/04 12:04:43;;;;;;;18.62;12.35;;;;;;;6.04;53.56;100232.80;1682041;84;21074;-69
2021/12/04 12:07:19;;;;;;;16.15;11.73;;;;;;;6.02;53.50;100228.25;1681150;84;21058;-69
2021/12/04 12:09:49;;;;;;;16.23;11.95;;;;;;;5.99;53.50;100225.56;1671482;84;21132;-69
2021/12/04 12:12:17;;;;;;;17.07;11.08;;;;;;;5.98;53.52;100222.61;1678479;84;21062;-69
2021/12/04 12:14:52;;;;;;;17.75;12.85;;;;;;;5.99;53.33;100232.69;1676654;84;21146;-68
2021/12/04 12:17:35;;;;;;;16.87;11.05;;;;;;;5.90;53.21;100228.78;1656843;85;21109;-69
2021/12/04 12:20:08;;;;;;;15.48;10.63;;;;;;;5.86;53.34;100227.92;1655125;85;21047;-69
2021/12/04 12:25:38;;;;;;;16.27;11.18;;;;;;;5.75;52.87;100225.28;1660685;85;21562;-69
2021/12/04 12:33:32;;;;;;;14.87;9.23;;;;;;;5.66;53.18;100219.55;1670170;84;21105;-69
2021/12/04 12:36:09;;;;;;;13.32;8.70;;;;;;;5.67;53.23;100214.53;1668710;84;21121;-69
2021/12/04 12:38:55;;;;;;;14.68;9.35;;;;;;;5.63;52.81;100213.39;1651088;85;21061;-68
2021/12/04 12:41:30;;;;;;;15.50;10.15;;;;;;;5.57;52.84;100212.99;1632531;84;21197;-69
2021/12/04 12:44:08;;;;;;;16.15;11.50;;;;;;;5.59;53.00;100221.00;1663213;84;21086;-68
2021/12/04 12:46:40;;;;;;;19.60;11.30;;;;;;;5.62;53.12;100217.86;1643452;86;21661;-69
2021/12/04 12:49:36;;;;;;;17.75;11.55;;;;;;;5.63;53.28;100217.37;1667355;84;21526;-69
2021/12/04 12:52:24;;;;;;;15.15;9.13;;;;;;;5.61;53.38;100216.78;1643127;86;21107;-68
2021/12/04 12:55:02;;;;;;;18.62;10.30;;;;;;;5.57;53.31;100209.82;1675463;84;21133;-69
2021/12/04 12:57:41;;;;;;;13.45;8.55;;;;;;;5.56;53.26;100213.52;1681260;84;21023;-68
2021/12/04 13:11:48;;;;;;;19.20;11.22;;;;;;;5.41;53.34;100196.75;1641362;86;21547;-68
2021/12/04 13:14:27;;;;;;;16.55;11.20;;;;;;;5.39;53.41;100196.69;1641187;86;21014;-68
2021/12/04 13:17:07;;;;;;;19.07;11.12;;;;;;;5.36;53.43;100193.18;1641411;86;21055;-69
2021/12/04 13:19:38;;;;;;;18.48;11.97;;;;;;;5.30;53.51;100189.64;1639903;84;21043;-68
2021/12/04 13:22:09;;;;;;;21.12;11.97;;;;;;;5.26;53.58;100196.41;1696026;83;21137;-68
2021/12/04 13:24:39;;;;;;;18.20;12.68;;;;;;;5.20;53.69;100200.49;1695991;83;21120;-69
2021/12/04 13:29:52;;;;;;;18.30;12.28;;;;;;;5.11;53.82;100196.08;1696244;83;21057;-69
2021/12/04 13:32:34;;;;;;;28.70;13.65;;;;;;;5.06;53.96;100207.86;1695939;83;21101;-69
2021/12/04 13:35:08;;;;;;;24.47;13.70;;;;;;;4.97;54.15;100203.44;1695385;83;21363;-69
2021/12/04 13:37:35;;;;;;;25.20;14.63;;;;;;;4.90;54.32;100206.68;1695987;83;20955;-68
2021/12/04 13:40:06;;;;;;;25.27;13.65;;;;;;;4.80;54.51;100207.23;1690524;83;21153;-69
2021/12/04 13:42:35;;;;;;;24.15;14.10;;;;;;;4.72;54.68;100204.13;1667704;84;21030;-69
2021/12/04 13:45:04;;;;;;;22.42;15.25;;;;;;;4.64;54.90;100197.31;1658095;84;21082;-69
2021/12/04 13:47:32;;;;;;;21.95;15.08;;;;;;;4.53;55.14;100198.89;1648213;86;21108;-68
2021/12/04 13:50:06;;;;;;;20.48;14.13;;;;;;;4.43;55.34;100194.16;1669858;84;21667;-68
2021/12/04 13:52:32;;;;;;;24.12;16.73;;;;;;;4.35;55.58;100203.73;1670051;84;21440;-69
2021/12/04 13:55:08;;;;;;;24.47;16.27;;;;;;;4.26;55.84;100194.50;1669752;84;21088;-69
2021/12/04 13:57:40;;;;;;;21.37;15.58;;;;;;;4.16;56.05;100197.67;1664724;84;20967;-69
2021/12/04 14:00:10;;;;;;;23.15;16.55;;;;;;;4.09;56.22;100190.88;1669492;84;21134;-69
2021/12/04 14:02:37;;;;;;;26.57;17.20;;;;;;;4.02;56.37;100193.59;1669750;84;21082;-69
2021/12/04 14:05:17;;;;;;;27.07;16.23;;;;;;;3.97;56.56;100192.13;1669807;84;21071;-70
2021/12/04 14:07:49;;;;;;;23.27;16.00;;;;;;;3.89;56.68;100201.17;1648017;83;21051;-69
2021/12/04 14:10:24;;;;;;;24.10;15.93;;;;;;;3.82;56.82;100197.80;1662410;84;21137;-67
2021/12/04 14:12:54;;;;;;;24.15;16.15;;;;;;;3.74;56.92;100196.24;1619008;86;21052;-69
2021/12/04 14:15:22;;;;;;;28.40;16.60;;;;;;;3.66;57.07;100203.16;1642219;86;21019;-69
2021/12/04 14:17:51;;;;;;;29.77;18.35;;;;;;;3.58;57.21;100203.95;1619049;87;21084;-68
2021/12/04 14:20:21;;;;;;;28.12;18.77;;;;;;;3.49;57.33;100204.77;1686281;83;21123;-68
2021/12/04 14:22:52;;;;;;;30.00;19.10;;;;;;;3.43;57.49;100210.92;1643018;85;21088;-69
2021/12/04 14:25:19;;;;;;;30.62;20.23;;;;;;;3.38;57.58;100204.15;1665606;85;21142;-69
2021/12/04 14:27:45;;;;;;;30.62;19.67;;;;;;;3.31;57.70;100210.02;1642441;86;20972;-69
2021/12/04 14:30:22;;;;;;;33.53;20.27;;;;;;;3.24;57.85;100212.71;1643243;86;21565;-69
2021/12/04 14:32:56;;;;;;;30.92;19.35;;;;;;;3.15;57.98;100208.20;1683722;84;21039;-69
2021/12/04 14:35:36;;;;;;;30.95;19.25;;;;;;;3.11;58.12;100214.15;1657762;84;21106;-69
2021/12/04 14:38:06;;;;;;;34.65;19.02;;;;;;;3.04;58.27;100218.96;1670470;84;21178;-69
2021/12/04 14:40:41;;;;;;;;;;;;;;;3.00;58.43;100216.47;1653295;85;21044;-69